Time;durP1;ratioP1;P1;durP2;ratioP2;P2;SDS_P1;SDS_P2;PMS_P1;PMS_P2;Temp;Humidity;BMP_temperature;BMP_pressure;BME280_temperature;BME280_humidity;BME280_pressure;Samples;Min_cycle;Max_cycle;Signal;HPM_P1;HPM_P2
2022/09/18 00:00:47;;;;;;;1.92;1.02;;;7.90;99.90;;;;;;4987888;28;20470;-58
2022/09/18 00:03:15;;;;;;;2.03;1.00;;;8.00;99.90;;;;;;4988965;28;20084;-58
2022/09/18 00:05:41;;;;;;;5.57;1.33;;;8.10;99.90;;;;;;4989764;28;20490;-58
2022/09/18 00:08:08;;;;;;;2.58;1.08;;;8.10;99.90;;;;;;4987674;28;20022;-58
2022/09/18 00:10:43;;;;;;;3.88;0.98;;;8.30;99.90;;;;;;4990213;28;20026;-58
2022/09/18 00:13:10;;;;;;;7.30;1.13;;;8.30;99.90;;;;;;4987589;28;20530;-58
2022/09/18 00:15:36;;;;;;;1.52;0.90;;;8.50;99.90;;;;;;4989364;28;20030;-58
2022/09/18 00:18:03;;;;;;;2.72;0.77;;;8.60;99.90;;;;;;5003116;28;20034;-58
2022/09/18 00:20:29;;;;;;;1.80;0.63;;;8.70;99.90;;;;;;4990299;28;20026;-58
2022/09/18 00:22:54;;;;;;;1.15;1.02;;;8.70;99.90;;;;;;4986647;28;20067;-58
2022/09/18 00:25:20;;;;;;;2.92;1.20;;;8.60;99.90;;;;;;4987680;28;20030;-58
2022/09/18 00:27:46;;;;;;;2.35;1.05;;;8.60;99.90;;;;;;4987062;28;20062;-57
2022/09/18 00:30:12;;;;;;;3.22;1.23;;;8.50;99.90;;;;;;4989829;28;20026;-59
2022/09/18 00:32:38;;;;;;;2.10;0.90;;;8.50;99.90;;;;;;4989334;28;20027;-57
2022/09/18 00:35:04;;;;;;;2.42;1.20;;;8.60;99.90;;;;;;4988179;28;20045;-57
2022/09/18 00:37:29;;;;;;;3.67;1.08;;;8.50;99.90;;;;;;4991507;28;20431;-57
2022/09/18 00:39:55;;;;;;;1.50;0.90;;;8.50;99.90;;;;;;4987597;28;20034;-58
2022/09/18 00:42:21;;;;;;;1.33;0.75;;;8.50;99.90;;;;;;4992466;28;20524;-58
2022/09/18 00:44:48;;;;;;;3.72;0.80;;;8.60;99.90;;;;;;4991172;28;20050;-58
2022/09/18 00:47:26;;;;;;;1.67;0.70;;;8.70;99.90;;;;;;4992421;28;20022;-57
2022/09/18 00:49:58;;;;;;;1.38;0.63;;;8.80;99.90;;;;;;4981289;28;20479;-57
2022/09/18 00:52:28;;;;;;;2.92;0.75;;;8.80;99.90;;;;;;4992513;28;20038;-57
2022/09/18 00:55:23;;;;;;;3.67;0.98;;;8.90;99.90;;;;;;4984531;28;20049;-58
2022/09/18 00:57:53;;;;;;;1.67;0.93;;;9.00;99.90;;;;;;4988690;28;20026;-58
2022/09/18 01:00:19;;;;;;;1.65;0.98;;;9.10;99.90;;;;;;4992553;28;20056;-57
2022/09/18 01:02:47;;;;;;;3.20;0.85;;;9.20;99.90;;;;;;4990285;28;20030;-58
2022/09/18 01:05:16;;;;;;;1.27;0.73;;;9.30;99.90;;;;;;4992928;28;20042;-58
2022/09/18 01:07:50;;;;;;;2.60;0.82;;;9.30;99.90;;;;;;4984889;28;20057;-57
2022/09/18 01:10:35;;;;;;;2.90;1.00;;;9.40;99.90;;;;;;4992399;28;20065;-58
2022/09/18 01:13:28;;;;;;;1.33;0.55;;;9.50;99.90;;;;;;4982441;28;20494;-58
2022/09/18 01:16:01;;;;;;;2.75;0.50;;;9.50;99.90;;;;;;4990120;28;20077;-58
2022/09/18 01:19:05;;;;;;;0.50;0.50;;;9.40;99.90;;;;;;4992581;28;20080;-58
2022/09/18 01:21:59;;;;;;;3.80;0.98;;;9.40;99.90;;;;;;4986121;28;20061;-58
2022/09/18 01:24:56;;;;;;;0.98;0.60;;;9.30;99.90;;;;;;4990326;28;20033;-58
2022/09/18 01:27:56;;;;;;;0.60;0.60;;;9.40;99.90;;;;;;4991324;28;20030;-58
2022/09/18 01:30:22;;;;;;;0.73;0.52;;;9.40;99.90;;;;;;4984466;28;20034;-59
2022/09/18 01:33:04;;;;;;;1.02;0.70;;;9.40;99.90;;;;;;4987640;28;20053;-58
2022/09/18 01:35:44;;;;;;;2.08;0.60;;;9.40;99.90;;;;;;4992671;28;20038;-58
2022/09/18 01:38:25;;;;;;;1.45;0.88;;;9.40;99.90;;;;;;4991551;28;20033;-58
2022/09/18 01:41:04;;;;;;;1.08;0.90;;;9.30;99.90;;;;;;4989640;28;20026;-59
2022/09/18 01:43:31;;;;;;;2.03;0.95;;;9.30;99.90;;;;;;4989541;28;20050;-59
2022/09/18 01:46:02;;;;;;;2.50;0.80;;;9.10;99.90;;;;;;4989430;28;20490;-58
2022/09/18 01:48:35;;;;;;;1.42;0.80;;;9.00;99.90;;;;;;4990343;28;20121;-58
2022/09/18 01:51:09;;;;;;;3.03;0.80;;;9.00;99.90;;;;;;4980392;28;20034;-58
2022/09/18 01:53:43;;;;;;;0.63;0.60;;;9.00;99.90;;;;;;4983975;28;20061;-58
2022/09/18 01:56:25;;;;;;;2.22;0.80;;;8.90;99.90;;;;;;4991181;28;20030;-57
2022/09/18 01:58:56;;;;;;;1.70;0.60;;;8.90;99.90;;;;;;4988749;28;20026;-58
2022/09/18 02:01:27;;;;;;;0.95;0.40;;;8.80;99.90;;;;;;4988304;28;20023;-58
2022/09/18 02:04:10;;;;;;;3.05;0.80;;;8.70;99.90;;;;;;4988188;28;20398;-58
2022/09/18 02:06:45;;;;;;;1.33;0.45;;;8.70;99.90;;;;;;4990862;28;20124;-58
2022/09/18 02:09:12;;;;;;;1.75;0.40;;;8.60;99.90;;;;;;4992053;28;20113;-58
2022/09/18 02:11:42;;;;;;;2.38;0.57;;;8.70;99.90;;;;;;4990990;28;20061;-58
2022/09/18 02:14:33;;;;;;;1.13;0.50;;;8.90;99.90;;;;;;4990611;28;20515;-58
2022/09/18 02:17:12;;;;;;;2.63;0.50;;;9.00;99.90;;;;;;4985128;28;20027;-58
2022/09/18 02:19:43;;;;;;;2.83;1.05;;;9.20;99.90;;;;;;4986765;28;20034;-58
2022/09/18 02:22:16;;;;;;;1.42;0.52;;;9.20;99.90;;;;;;4989214;28;20026;-57
2022/09/18 02:24:44;;;;;;;2.92;0.70;;;9.20;99.90;;;;;;4987860;28;20026;-58
2022/09/18 02:27:13;;;;;;;1.17;0.47;;;9.30;99.90;;;;;;4990320;28;20022;-58
2022/09/18 02:29:43;;;;;;;1.17;0.60;;;9.30;99.90;;;;;;4989621;28;20034;-58
2022/09/18 02:32:09;;;;;;;0.57;0.52;;;9.40;99.90;;;;;;4990697;28;20393;-58
2022/09/18 02:34:34;;;;;;;0.85;0.52;;;9.40;99.90;;;;;;4991334;28;20505;-58
2022/09/18 02:37:30;;;;;;;0.30;0.30;;;9.40;99.90;;;;;;4988772;28;20446;-58
2022/09/18 02:40:41;;;;;;;2.17;0.57;;;9.40;99.90;;;;;;4985957;28;20561;-58
2022/09/18 02:43:27;;;;;;;5.13;0.55;;;9.40;99.90;;;;;;4977157;28;20038;-57
2022/09/18 02:46:25;;;;;;;1.10;0.60;;;9.50;99.90;;;;;;4988251;28;20038;-58
2022/09/18 02:48:54;;;;;;;0.47;0.38;;;9.50;99.90;;;;;;4985404;28;20438;-58
2022/09/18 02:51:46;;;;;;;1.45;0.95;;;9.50;99.90;;;;;;4987550;28;20542;-58
2022/09/18 02:54:31;;;;;;;0.60;0.40;;;9.50;99.90;;;;;;4987818;28;20042;-57
2022/09/18 02:57:01;;;;;;;1.70;0.47;;;9.50;99.90;;;;;;4986247;28;20034;-57
2022/09/18 02:59:35;;;;;;;0.57;0.50;;;9.50;99.90;;;;;;4987225;28;20521;-57
2022/09/18 03:02:02;;;;;;;1.20;0.60;;;9.50;99.90;;;;;;4983545;28;20069;-58
2022/09/18 03:04:28;;;;;;;1.63;0.63;;;9.50;99.90;;;;;;4979762;28;20042;-57
2022/09/18 03:06:54;;;;;;;1.65;0.65;;;9.50;99.90;;;;;;4983784;28;20027;-57
2022/09/18 03:09:21;;;;;;;1.80;0.95;;;9.50;99.90;;;;;;4987411;28;20030;-58
2022/09/18 03:11:48;;;;;;;2.90;0.60;;;9.40;99.90;;;;;;4985527;28;20045;-58
2022/09/18 03:14:15;;;;;;;0.93;0.47;;;9.40;99.90;;;;;;4985634;28;20038;-58
2022/09/18 03:16:41;;;;;;;1.20;0.40;;;9.40;99.90;;;;;;4984139;28;20510;-58
2022/09/18 03:19:06;;;;;;;0.68;0.57;;;9.30;99.90;;;;;;4985418;28;20096;-58
2022/09/18 03:21:33;;;;;;;1.45;0.63;;;9.20;99.90;;;;;;4987663;28;20113;-59
2022/09/18 03:23:59;;;;;;;1.77;0.50;;;9.10;99.90;;;;;;4983235;28;20122;-58
2022/09/18 03:26:24;;;;;;;1.08;0.45;;;9.00;99.90;;;;;;4989397;28;20129;-59
2022/09/18 03:28:50;;;;;;;3.08;0.50;;;8.90;99.90;;;;;;4986571;28;20065;-58
2022/09/18 03:31:16;;;;;;;1.80;0.57;;;8.90;99.90;;;;;;4989837;28;20084;-58
2022/09/18 03:33:41;;;;;;;0.30;0.30;;;8.90;99.90;;;;;;4987527;28;20054;-58
2022/09/18 03:36:07;;;;;;;1.27;0.50;;;8.90;99.90;;;;;;4988001;28;20038;-58
2022/09/18 03:38:36;;;;;;;2.70;0.60;;;9.00;99.90;;;;;;4989229;28;20026;-59
2022/09/18 03:41:03;;;;;;;1.42;0.60;;;9.00;99.90;;;;;;4987396;28;20030;-58
2022/09/18 03:43:29;;;;;;;1.02;0.60;;;9.10;99.90;;;;;;4974969;22;1207059;-58
2022/09/18 03:45:55;;;;;;;1.27;0.60;;;9.10;99.90;;;;;;4991094;28;20030;-58
2022/09/18 03:48:20;;;;;;;1.75;0.45;;;9.00;99.90;;;;;;4997262;28;20085;-58
2022/09/18 03:50:49;;;;;;;2.88;0.68;;;9.00;99.90;;;;;;4997956;28;20068;-58
2022/09/18 03:53:16;;;;;;;2.75;0.68;;;9.10;99.90;;;;;;5001124;28;20069;-59
2022/09/18 03:55:41;;;;;;;3.58;0.43;;;9.10;99.90;;;;;;4997116;28;20046;-58
2022/09/18 03:58:07;;;;;;;0.73;0.50;;;9.20;99.90;;;;;;4995938;28;20018;-58
2022/09/18 04:00:33;;;;;;;2.05;0.50;;;9.20;99.90;;;;;;4998706;28;20485;-58
2022/09/18 04:02:59;;;;;;;0.93;0.45;;;9.10;99.90;;;;;;5000669;28;20425;-58
2022/09/18 04:05:25;;;;;;;0.82;0.30;;;9.10;99.90;;;;;;5006099;28;20075;-58
2022/09/18 04:07:51;;;;;;;2.78;0.70;;;9.10;99.90;;;;;;4999309;28;20109;-58
2022/09/18 04:10:16;;;;;;;1.27;0.40;;;9.10;99.90;;;;;;5002671;28;20101;-58
2022/09/18 04:12:49;;;;;;;1.17;0.50;;;9.10;99.90;;;;;;5003129;28;20485;-58
2022/09/18 04:15:15;;;;;;;0.75;0.70;;;9.10;99.90;;;;;;4996298;28;20064;-58
2022/09/18 04:17:41;;;;;;;2.67;0.43;;;9.10;99.90;;;;;;5010980;28;20168;-58
2022/09/18 04:20:08;;;;;;;2.00;0.70;;;9.00;99.90;;;;;;4995961;28;20474;-58
2022/09/18 04:22:34;;;;;;;0.40;0.40;;;8.90;99.90;;;;;;4993601;28;20027;-58
2022/09/18 04:25:00;;;;;;;0.73;0.38;;;8.80;99.90;;;;;;5002372;28;20037;-58
2022/09/18 04:27:25;;;;;;;2.35;0.60;;;8.80;99.90;;;;;;5008551;28;20057;-58
2022/09/18 04:29:51;;;;;;;0.80;0.45;;;8.90;99.90;;;;;;4996568;28;20022;-59
2022/09/18 04:32:17;;;;;;;1.15;0.30;;;8.90;99.90;;;;;;5001899;28;20030;-58
2022/09/18 04:34:42;;;;;;;1.02;0.32;;;8.90;99.90;;;;;;4997293;28;20129;-58
2022/09/18 04:37:09;;;;;;;4.07;0.50;;;9.00;99.90;;;;;;5004879;28;20552;-58
2022/09/18 04:39:34;;;;;;;1.10;0.45;;;9.00;99.90;;;;;;4997316;28;20076;-59
2022/09/18 04:42:00;;;;;;;0.68;0.50;;;9.00;99.90;;;;;;4994633;28;20030;-57
2022/09/18 04:44:26;;;;;;;2.72;0.52;;;9.00;99.90;;;;;;5003892;28;20513;-58
2022/09/18 04:46:52;;;;;;;0.80;0.50;;;9.00;99.90;;;;;;4994606;28;20038;-57
2022/09/18 04:49:17;;;;;;;0.52;0.35;;;8.90;99.90;;;;;;4999574;28;20033;-57
2022/09/18 04:51:44;;;;;;;1.52;0.50;;;8.90;99.90;;;;;;4995194;28;20046;-57
2022/09/18 04:54:11;;;;;;;0.73;0.32;;;8.80;99.90;;;;;;4999388;28;20552;-58
2022/09/18 04:56:37;;;;;;;0.70;0.30;;;8.80;99.90;;;;;;4997518;28;20118;-57
2022/09/18 04:59:03;;;;;;;0.57;0.30;;;8.80;99.90;;;;;;4990998;28;20466;-59
2022/09/18 05:01:29;;;;;;;0.40;0.30;;;8.80;99.90;;;;;;5002628;28;20165;-58
2022/09/18 05:03:54;;;;;;;0.85;0.50;;;8.90;99.90;;;;;;4996339;28;20037;-58
2022/09/18 05:06:20;;;;;;;0.47;0.40;;;8.90;99.90;;;;;;5001295;28;20532;-58
2022/09/18 05:08:46;;;;;;;1.13;0.52;;;8.90;99.90;;;;;;4992531;28;20038;-59
2022/09/18 05:11:12;;;;;;;1.10;0.40;;;8.90;99.90;;;;;;4998179;28;20029;-58
2022/09/18 05:13:39;;;;;;;2.40;0.35;;;8.90;99.90;;;;;;4990010;28;20033;-58
2022/09/18 05:16:04;;;;;;;1.70;0.60;;;8.90;99.90;;;;;;4994452;28;20104;-57
2022/09/18 05:18:30;;;;;;;0.45;0.30;;;8.90;99.90;;;;;;5001737;28;20430;-58
2022/09/18 05:21:03;;;;;;;0.98;0.50;;;8.90;99.90;;;;;;4995009;28;20044;-58
2022/09/18 05:23:29;;;;;;;0.98;0.32;;;9.00;99.90;;;;;;5001308;28;20026;-58
2022/09/18 05:25:54;;;;;;;0.70;0.40;;;9.00;99.90;;;;;;4998764;28;20023;-57
2022/09/18 05:28:20;;;;;;;3.35;0.40;;;8.90;99.90;;;;;;5004756;28;20030;-57
2022/09/18 05:30:46;;;;;;;1.48;0.40;;;8.80;99.90;;;;;;5000721;28;20466;-58
2022/09/18 05:33:11;;;;;;;4.05;0.70;;;8.90;99.90;;;;;;4999104;28;20034;-58
2022/09/18 05:35:38;;;;;;;1.48;0.50;;;9.00;99.90;;;;;;5000446;28;20030;-58
2022/09/18 05:38:05;;;;;;;1.50;0.30;;;9.00;99.90;;;;;;5000394;28;20041;-59
2022/09/18 05:40:33;;;;;;;1.30;0.50;;;9.00;99.90;;;;;;4989869;28;20540;-58
2022/09/18 05:42:59;;;;;;;0.73;0.30;;;9.00;99.90;;;;;;4995215;28;20461;-59
2022/09/18 05:45:25;;;;;;;1.73;0.50;;;9.00;99.90;;;;;;5004082;28;20034;-58
2022/09/18 05:47:56;;;;;;;1.45;0.35;;;9.00;99.90;;;;;;4992196;28;20550;-59
2022/09/18 05:50:23;;;;;;;0.82;0.30;;;8.90;99.90;;;;;;4999354;28;20030;-58
2022/09/18 05:53:02;;;;;;;0.40;0.20;;;9.00;99.90;;;;;;4998441;28;20031;-57
2022/09/18 05:55:29;;;;;;;3.90;0.50;;;9.00;99.90;;;;;;4995314;28;20038;-57
2022/09/18 05:57:56;;;;;;;0.68;0.30;;;9.00;99.90;;;;;;4999297;28;20470;-57
2022/09/18 06:00:26;;;;;;;1.23;0.60;;;9.00;99.90;;;;;;5011640;28;20033;-57
2022/09/18 06:03:06;;;;;;;1.98;0.50;;;9.00;99.90;;;;;;5000747;28;20041;-58
2022/09/18 06:05:34;;;;;;;1.20;0.50;;;9.10;99.90;;;;;;5006513;28;20057;-57
2022/09/18 06:08:01;;;;;;;0.85;0.40;;;9.00;99.90;;;;;;5000821;28;20445;-57
2022/09/18 06:10:31;;;;;;;2.22;0.40;;;8.90;99.90;;;;;;5004052;28;20474;-57
2022/09/18 06:13:01;;;;;;;2.78;0.60;;;9.00;99.90;;;;;;5000523;28;20021;-58
2022/09/18 06:15:27;;;;;;;0.88;0.52;;;9.00;99.90;;;;;;5006320;28;20510;-58
2022/09/18 06:17:53;;;;;;;1.33;0.35;;;9.00;99.90;;;;;;4996821;28;20034;-58
2022/09/18 06:20:19;;;;;;;1.55;0.60;;;9.00;99.90;;;;;;5006872;28;20532;-57
2022/09/18 06:22:45;;;;;;;0.75;0.40;;;8.90;99.90;;;;;;5002759;28;20037;-57
2022/09/18 06:25:11;;;;;;;2.20;0.40;;;9.00;99.90;;;;;;5003161;28;20411;-58
2022/09/18 06:27:36;;;;;;;0.80;0.30;;;9.00;99.90;;;;;;5007910;28;20030;-58
2022/09/18 06:30:04;;;;;;;6.50;0.65;;;9.10;99.90;;;;;;5001042;28;20540;-58
2022/09/18 06:32:30;;;;;;;1.00;0.40;;;9.20;99.90;;;;;;5005548;28;20041;-60
2022/09/18 06:34:56;;;;;;;0.20;0.20;;;9.20;99.90;;;;;;4989770;28;20395;-58
2022/09/18 06:37:22;;;;;;;3.05;0.60;;;9.20;99.90;;;;;;5000923;28;20105;-58
2022/09/18 06:39:47;;;;;;;2.15;0.30;;;9.30;99.90;;;;;;4990323;28;20117;-58
2022/09/18 06:42:15;;;;;;;0.80;0.25;;;9.40;99.90;;;;;;4998943;28;20034;-59
2022/09/18 06:44:41;;;;;;;1.02;0.45;;;9.40;99.90;;;;;;4993004;28;20069;-58
2022/09/18 06:47:06;;;;;;;0.70;0.45;;;9.50;99.90;;;;;;4991074;28;20084;-58
2022/09/18 06:49:33;;;;;;;1.65;0.50;;;9.60;99.90;;;;;;5006945;28;20026;-58
2022/09/18 06:51:59;;;;;;;0.35;0.32;;;9.60;99.90;;;;;;4998970;28;20033;-57
2022/09/18 06:54:24;;;;;;;1.50;0.32;;;9.70;99.90;;;;;;4992846;28;20038;-58
2022/09/18 06:56:50;;;;;;;3.42;0.50;;;9.70;99.90;;;;;;4989211;28;20049;-57
2022/09/18 06:59:16;;;;;;;1.48;0.30;;;9.70;99.90;;;;;;4994126;28;20041;-58
2022/09/18 07:01:42;;;;;;;0.10;0.10;;;9.80;99.90;;;;;;5002655;28;20424;-58
2022/09/18 07:04:07;;;;;;;0.43;0.30;;;9.80;99.90;;;;;;4996085;28;20034;-58
2022/09/18 07:06:33;;;;;;;0.43;0.30;;;9.90;99.90;;;;;;5008449;28;20022;-58
2022/09/18 07:08:59;;;;;;;1.60;0.65;;;10.00;99.90;;;;;;4998688;28;20425;-57
2022/09/18 07:11:25;;;;;;;2.50;0.60;;;10.00;99.90;;;;;;4994695;28;20022;-58
2022/09/18 07:13:52;;;;;;;3.60;0.68;;;10.10;99.90;;;;;;4987370;28;20498;-58
2022/09/18 07:16:17;;;;;;;0.75;0.40;;;10.20;99.90;;;;;;4996401;28;20034;-57
2022/09/18 07:18:43;;;;;;;1.95;0.50;;;10.20;99.90;;;;;;4995943;28;20030;-58
2022/09/18 07:21:09;;;;;;;1.15;0.30;;;10.30;99.90;;;;;;4995290;28;20401;-58
2022/09/18 07:23:35;;;;;;;1.35;0.50;;;10.20;99.90;;;;;;4992622;28;20117;-57
2022/09/18 07:26:03;;;;;;;0.45;0.28;;;10.30;99.90;;;;;;4992059;28;20034;-57
2022/09/18 07:28:28;;;;;;;1.63;0.30;;;10.30;99.90;;;;;;4989081;28;20027;-57
2022/09/18 07:30:55;;;;;;;0.93;0.35;;;10.40;99.90;;;;;;4996543;28;20037;-57
2022/09/18 07:33:21;;;;;;;0.98;0.40;;;10.50;99.90;;;;;;4989126;28;20049;-58
2022/09/18 07:35:48;;;;;;;1.55;0.47;;;10.50;99.90;;;;;;5005266;28;20480;-58
2022/09/18 07:38:13;;;;;;;0.98;0.50;;;10.60;99.90;;;;;;4999253;28;20038;-57
2022/09/18 07:40:41;;;;;;;1.65;0.35;;;10.60;99.90;;;;;;4999693;28;20045;-57
2022/09/18 07:43:09;;;;;;;5.57;1.00;;;10.70;99.90;;;;;;4987840;28;20054;-57
2022/09/18 07:45:35;;;;;;;1.27;0.50;;;10.70;99.90;;;;;;4993436;28;20022;-58
2022/09/18 07:48:04;;;;;;;1.13;0.32;;;10.80;99.90;;;;;;5000061;28;20108;-58
2022/09/18 07:50:30;;;;;;;1.55;0.65;;;10.90;99.90;;;;;;4997686;28;20125;-59
2022/09/18 07:52:58;;;;;;;0.47;0.32;;;10.90;99.90;;;;;;4989190;28;20031;-58
2022/09/18 07:55:25;;;;;;;0.85;0.40;;;11.00;99.90;;;;;;4995014;28;20034;-57
2022/09/18 07:57:59;;;;;;;1.15;0.30;;;11.00;99.90;;;;;;4991713;28;20581;-58
2022/09/18 08:00:27;;;;;;;0.73;0.50;;;11.00;99.90;;;;;;5005867;28;20045;-57
2022/09/18 08:03:03;;;;;;;0.70;0.20;;;11.10;99.90;;;;;;4996059;28;20446;-57
2022/09/18 08:05:29;;;;;;;1.50;0.35;;;11.20;99.90;;;;;;4989895;28;20030;-57
2022/09/18 08:07:54;;;;;;;0.40;0.30;;;11.30;99.90;;;;;;4993387;28;20474;-57
2022/09/18 08:10:20;;;;;;;2.30;0.45;;;11.40;99.90;;;;;;5004458;28;20037;-57
2022/09/18 08:12:46;;;;;;;0.40;0.30;;;11.40;99.90;;;;;;4990432;28;20442;-58
2022/09/18 08:15:11;;;;;;;0.43;0.30;;;11.50;99.90;;;;;;4999401;28;20042;-58
2022/09/18 08:17:45;;;;;;;1.45;0.40;;;11.60;99.90;;;;;;4997543;28;20026;-58
2022/09/18 08:20:11;;;;;;;0.43;0.20;;;11.60;99.90;;;;;;4997046;28;20034;-58
2022/09/18 08:22:40;;;;;;;0.57;0.30;;;11.70;99.90;;;;;;5002377;28;20018;-57
2022/09/18 08:25:07;;;;;;;2.47;0.38;;;11.80;99.90;;;;;;4995518;28;20029;-57
2022/09/18 08:27:40;;;;;;;0.40;0.20;;;11.90;99.90;;;;;;4991989;28;20034;-59
2022/09/18 08:30:08;;;;;;;0.30;0.30;;;11.90;99.90;;;;;;4995695;28;20030;-58
2022/09/18 08:32:34;;;;;;;2.15;0.40;;;12.00;99.90;;;;;;5001332;28;20042;-58
2022/09/18 08:35:00;;;;;;;1.73;0.47;;;12.10;99.90;;;;;;4993205;28;20118;-57
2022/09/18 08:37:27;;;;;;;2.50;0.55;;;12.10;99.90;;;;;;5003189;28;20113;-58
2022/09/18 08:39:53;;;;;;;0.95;0.30;;;12.20;99.90;;;;;;4992116;28;20066;-59
2022/09/18 08:42:35;;;;;;;2.17;0.30;;;12.20;99.90;;;;;;5001180;28;20532;-57
2022/09/18 08:45:27;;;;;;;0.50;0.40;;;12.10;99.90;;;;;;5001508;28;20057;-58
2022/09/18 08:47:59;;;;;;;0.40;0.28;;;12.10;99.90;;;;;;4993936;28;20038;-58
2022/09/18 08:50:31;;;;;;;1.27;0.40;;;12.10;99.90;;;;;;4995943;28;20035;-58
2022/09/18 08:53:05;;;;;;;2.40;0.40;;;12.10;99.90;;;;;;4995502;28;20034;-57
2022/09/18 08:55:37;;;;;;;0.75;0.17;;;12.10;99.90;;;;;;5006317;28;20080;-57
2022/09/18 08:58:14;;;;;;;0.93;0.77;;;12.10;99.90;;;;;;5003173;28;20052;-58
2022/09/18 09:00:41;;;;;;;0.95;0.40;;;12.20;99.90;;;;;;4997618;28;20034;-58
2022/09/18 09:03:28;;;;;;;2.80;0.50;;;12.30;99.90;;;;;;4997703;28;20436;-58
2022/09/18 09:06:18;;;;;;;2.00;0.40;;;12.50;99.90;;;;;;4994942;28;20042;-58
2022/09/18 09:09:10;;;;;;;0.60;0.40;;;12.70;99.90;;;;;;5003312;28;20057;-57
2022/09/18 09:11:58;;;;;;;1.77;0.50;;;12.90;99.90;;;;;;5009795;28;20026;-59
2022/09/18 09:14:31;;;;;;;2.30;0.40;;;12.90;99.90;;;;;;4990611;28;20049;-58
2022/09/18 09:17:08;;;;;;;0.43;0.30;;;12.90;99.90;;;;;;4989330;28;20033;-58
2022/09/18 09:19:53;;;;;;;0.40;0.40;;;13.00;99.90;;;;;;4999545;28;20077;-58
2022/09/18 09:22:46;;;;;;;0.65;0.40;;;13.10;99.90;;;;;;4995166;28;20398;-56
2022/09/18 09:25:17;;;;;;;0.30;0.30;;;13.20;99.90;;;;;;4992542;28;20038;-61
2022/09/18 09:27:51;;;;;;;1.02;0.40;;;13.40;99.90;;;;;;4988019;28;20033;-59
2022/09/18 09:30:20;;;;;;;1.98;0.13;;;13.60;99.90;;;;;;4994725;28;20329;-58
2022/09/18 09:33:01;;;;;;;0.35;0.25;;;13.70;99.90;;;;;;4989656;28;20026;-57
2022/09/18 09:35:29;;;;;;;0.25;0.25;;;13.80;99.90;;;;;;4989721;28;20057;-57
2022/09/18 09:37:58;;;;;;;0.25;0.20;;;13.90;99.90;;;;;;4994775;28;20033;-58
2022/09/18 09:40:38;;;;;;;1.02;0.32;;;14.00;99.90;;;;;;4995345;28;20046;-55
2022/09/18 09:43:26;;;;;;;1.15;0.38;;;14.20;99.90;;;;;;4992934;28;20104;-58
2022/09/18 09:45:55;;;;;;;0.40;0.20;;;14.30;99.90;;;;;;4993379;28;20065;-57
2022/09/18 09:48:44;;;;;;;0.17;0.15;;;14.40;99.90;;;;;;4993122;28;20393;-57
2022/09/18 09:51:21;;;;;;;2.28;0.32;;;14.50;99.90;;;;;;4992790;28;20026;-57
2022/09/18 09:53:47;;;;;;;1.60;0.20;;;14.50;99.90;;;;;;4987147;28;20030;-58
2022/09/18 09:56:27;;;;;;;1.10;0.22;;;14.40;99.90;;;;;;4988731;28;20037;-58
2022/09/18 09:59:00;;;;;;;0.98;0.20;;;14.40;99.90;;;;;;4991680;28;20019;-58
2022/09/18 10:01:33;;;;;;;0.55;0.38;;;14.40;99.90;;;;;;4989367;28;20633;-59
2022/09/18 10:04:02;;;;;;;2.95;0.30;;;14.40;99.90;;;;;;4984189;28;20073;-58
2022/09/18 10:06:46;;;;;;;0.35;0.30;;;14.40;99.90;;;;;;4990217;28;20161;-58
2022/09/18 10:09:35;;;;;;;0.20;0.15;;;14.50;99.90;;;;;;4985274;28;20042;-59
2022/09/18 10:12:36;;;;;;;1.70;0.13;;;14.60;99.90;;;;;;4980504;28;20026;-58
2022/09/18 10:15:36;;;;;;;0.47;0.40;;;14.80;99.90;;;;;;4989316;28;20490;-58
2022/09/18 10:18:06;;;;;;;1.00;0.47;;;14.80;99.90;;;;;;4985685;28;20453;-58
2022/09/18 10:20:35;;;;;;;0.60;0.30;;;15.00;99.90;;;;;;4990777;28;20026;-58
2022/09/18 10:23:08;;;;;;;0.85;0.50;;;15.10;99.90;;;;;;4987518;28;20108;-58
2022/09/18 10:25:57;;;;;;;0.63;0.28;;;15.30;99.90;;;;;;4990061;28;20022;-57
2022/09/18 10:28:25;;;;;;;0.20;0.20;;;15.40;99.90;;;;;;4988233;28;20030;-57
2022/09/18 10:30:58;;;;;;;0.55;0.30;;;15.40;99.90;;;;;;4987794;28;20033;-57
2022/09/18 10:33:51;;;;;;;1.88;0.30;;;15.80;99.90;;;;;;4988362;28;20060;-58
2022/09/18 10:36:36;;;;;;;0.68;0.20;;;16.10;99.90;;;;;;4990460;28;20030;-57
2022/09/18 10:39:28;;;;;;;0.98;0.30;;;16.30;99.90;;;;;;4993220;28;20025;-58
2022/09/18 10:42:04;;;;;;;0.97;0.60;;;16.20;99.90;;;;;;4990591;28;20527;-57
2022/09/18 10:44:40;;;;;;;0.68;0.32;;;16.30;99.90;;;;;;4987102;28;20299;-58
2022/09/18 10:47:22;;;;;;;0.50;0.20;;;16.40;99.90;;;;;;4989267;28;20037;-57
2022/09/18 10:49:56;;;;;;;0.35;0.10;;;16.70;99.90;;;;;;4989501;28;20117;-59
2022/09/18 10:52:33;;;;;;;0.47;0.22;;;16.70;99.90;;;;;;4992093;28;20066;-59
2022/09/18 10:55:06;;;;;;;1.45;0.40;;;16.60;99.90;;;;;;4983555;28;20502;-59
2022/09/18 10:57:45;;;;;;;0.45;0.00;;;16.50;99.90;;;;;;4990036;28;20059;-58
2022/09/18 11:00:11;;;;;;;0.52;0.15;;;16.30;99.90;;;;;;4988870;28;20519;-57
2022/09/18 11:03:13;;;;;;;0.15;0.15;;;16.40;99.90;;;;;;4992564;28;20122;-58
2022/09/18 11:05:57;;;;;;;1.75;0.30;;;16.10;99.90;;;;;;4999600;28;20052;-58
2022/09/18 11:08:39;;;;;;;1.10;0.35;;;16.20;99.90;;;;;;4984738;28;20721;-58
2022/09/18 11:11:10;;;;;;;0.45;0.40;;;16.50;99.90;;;;;;4992422;28;20710;-58
2022/09/18 11:13:47;;;;;;;0.40;0.10;;;16.40;99.90;;;;;;4995355;28;20451;-58
2022/09/18 11:16:21;;;;;;;0.50;0.30;;;16.80;99.90;;;;;;4994304;28;20121;-58
2022/09/18 11:19:19;;;;;;;0.82;0.20;;;17.50;99.90;;;;;;4984428;28;20073;-58
2022/09/18 11:21:51;;;;;;;0.85;0.50;;;17.80;99.90;;;;;;4981887;28;20116;-58
2022/09/18 11:24:30;;;;;;;0.75;0.20;;;18.00;99.90;;;;;;4983900;28;20027;-59
2022/09/18 11:27:01;;;;;;;2.33;0.20;;;18.30;99.90;;;;;;4998593;28;20034;-58
2022/09/18 11:29:38;;;;;;;1.13;0.20;;;18.30;99.90;;;;;;4987735;28;20060;-57
2022/09/18 11:32:24;;;;;;;0.10;0.10;;;18.30;99.90;;;;;;4998923;28;20038;-58
2022/09/18 11:34:57;;;;;;;0.70;0.35;;;18.50;99.90;;;;;;4982089;28;20034;-58
2022/09/18 11:37:38;;;;;;;1.17;0.20;;;18.70;99.90;;;;;;4992743;28;20030;-57
2022/09/18 11:40:44;;;;;;;1.08;0.20;;;18.60;99.90;;;;;;4986429;28;20034;-58
2022/09/18 11:43:25;;;;;;;0.80;0.40;;;18.10;99.90;;;;;;4986096;28;20453;-57
2022/09/18 11:46:02;;;;;;;0.28;0.15;;;18.40;99.90;;;;;;4990262;28;20390;-58
2022/09/18 11:48:30;;;;;;;3.25;0.30;;;19.20;99.50;;;;;;5000320;28;20088;-58
2022/09/18 11:51:01;;;;;;;3.28;0.30;;;19.10;99.90;;;;;;4987458;28;20042;-58
2022/09/18 11:53:32;;;;;;;0.20;0.20;;;18.90;99.80;;;;;;4988478;28;20038;-59
2022/09/18 11:56:15;;;;;;;1.58;0.30;;;18.40;99.90;;;;;;4989047;28;20379;-56
2022/09/18 11:59:02;;;;;;;0.60;0.17;;;18.40;99.90;;;;;;4991051;28;20030;-58
2022/09/18 12:01:40;;;;;;;0.55;0.20;;;19.00;99.90;;;;;;4991905;28;20030;-58
2022/09/18 12:04:17;;;;;;;0.88;0.10;;;18.60;99.10;;;;;;4989062;28;20034;-58
2022/09/18 12:06:51;;;;;;;0.60;0.30;;;18.60;99.30;;;;;;4989113;28;20052;-58
2022/09/18 12:09:28;;;;;;;1.73;0.30;;;19.20;98.60;;;;;;4989619;28;20046;-58
2022/09/18 12:11:58;;;;;;;2.47;0.52;;;20.00;97.40;;;;;;4987878;28;20034;-58
2022/09/18 12:14:45;;;;;;;1.00;0.30;;;21.00;95.80;;;;;;4983616;28;20045;-56
2022/09/18 12:17:34;;;;;;;0.63;0.25;;;22.00;93.30;;;;;;4992775;28;20034;-58
2022/09/18 12:20:20;;;;;;;1.10;0.30;;;22.00;91.30;;;;;;4998719;28;20042;-58
2022/09/18 12:22:56;;;;;;;1.60;0.28;;;21.70;90.80;;;;;;4988846;28;20034;-58
2022/09/18 12:25:48;;;;;;;1.52;0.70;;;20.60;92.80;;;;;;4995050;28;20029;-58
2022/09/18 12:28:28;;;;;;;0.30;0.22;;;19.40;96.20;;;;;;5002453;28;20038;-57
2022/09/18 12:31:00;;;;;;;1.23;0.40;;;19.40;95.80;;;;;;4988770;28;20481;-58
2022/09/18 12:33:38;;;;;;;1.75;0.68;;;19.10;97.60;;;;;;4996998;28;20038;-58
2022/09/18 12:36:18;;;;;;;0.30;0.30;;;19.10;97.40;;;;;;5002650;28;20037;-58
2022/09/18 12:39:18;;;;;;;0.20;0.10;;;19.00;95.70;;;;;;4998858;28;20030;-58
2022/09/18 12:42:01;;;;;;;2.40;0.20;;;19.00;95.50;;;;;;4986643;28;20058;-58
2022/09/18 12:44:48;;;;;;;0.30;0.25;;;20.10;93.60;;;;;;4993435;28;20128;-58
2022/09/18 12:47:25;;;;;;;0.50;0.30;;;20.20;92.60;;;;;;4989441;28;20101;-58
2022/09/18 12:50:21;;;;;;;3.13;0.90;;;20.00;92.00;;;;;;4992814;28;20513;-58
2022/09/18 12:53:26;;;;;;;0.25;0.20;;;21.10;90.70;;;;;;4987413;28;20053;-58
2022/09/18 12:56:29;;;;;;;0.38;0.20;;;22.00;87.20;;;;;;4991932;28;20049;-58
2022/09/18 12:58:58;;;;;;;0.63;0.35;;;21.10;82.10;;;;;;4988934;28;20541;-58
2022/09/18 13:01:27;;;;;;;0.63;0.20;;;20.70;84.50;;;;;;4992412;28;20030;-58
2022/09/18 13:04:01;;;;;;;0.30;0.30;;;20.90;79.50;;;;;;4991176;28;20038;-58
2022/09/18 13:06:45;;;;;;;0.20;0.20;;;21.40;79.80;;;;;;4991787;28;20117;-59
2022/09/18 13:09:19;;;;;;;0.98;0.20;;;22.10;76.90;;;;;;4992560;28;20038;-58
2022/09/18 13:11:52;;;;;;;0.80;0.32;;;22.80;74.50;;;;;;4990016;28;20126;-57
2022/09/18 13:14:31;;;;;;;0.95;0.40;;;22.80;73.50;;;;;;4991117;28;20343;-58
2022/09/18 13:17:42;;;;;;;0.85;0.20;;;22.50;71.10;;;;;;4980392;28;20031;-58
2022/09/18 13:20:23;;;;;;;0.85;0.30;;;21.20;76.40;;;;;;4980188;28;20064;-59
2022/09/18 13:22:50;;;;;;;2.33;0.40;;;21.60;76.40;;;;;;4991317;28;20510;-58